createdAt,value
2022-08-07T00:02:37.707Z,77
2022-08-07T00:07:14.194Z,77
2022-08-07T00:12:19.226Z,77
2022-08-07T00:17:16.913Z,76
2022-08-07T00:22:24.283Z,76
2022-08-07T00:27:20.389Z,75
2022-08-07T00:32:28.321Z,76
2022-08-07T00:37:23.297Z,77
2022-08-07T00:42:25.561Z,77
2022-08-07T00:48:08.644Z,76
2022-08-07T00:52:28.354Z,75
2022-08-07T00:57:29.863Z,75
2022-08-07T01:02:31.854Z,75
2022-08-07T01:07:33.186Z,74
2022-08-07T01:12:34.837Z,75
2022-08-07T01:17:36.144Z,75
2022-08-07T01:22:38.108Z,75
2022-08-07T01:27:41.108Z,75
2022-08-07T01:32:41.891Z,75
2022-08-07T01:37:43.636Z,75
2022-08-07T01:42:54.934Z,75
2022-08-07T01:48:18.715Z,75
2022-08-07T01:52:49.492Z,75
2022-08-07T01:58:01.841Z,74
2022-08-07T02:03:12.646Z,74
2022-08-07T02:07:53.924Z,75
2022-08-07T02:12:55.247Z,75
2022-08-07T02:17:57.250Z,75
2022-08-07T02:22:59.626Z,75
2022-08-07T02:28:00.775Z,75
2022-08-07T02:33:07.341Z,75
2022-08-07T02:38:03.812Z,74
2022-08-07T02:43:07.709Z,74
2022-08-07T02:48:10.146Z,74
2022-08-07T02:53:10.819Z,74
2022-08-07T02:58:10.280Z,75
2022-08-07T03:03:13.308Z,75
2022-08-07T03:08:13.102Z,75
2022-08-07T03:13:14.388Z,75
2022-08-07T03:18:17.574Z,75
2022-08-07T03:23:18.983Z,76
2022-08-07T03:28:37.116Z,76
2022-08-07T03:33:20.625Z,76
2022-08-07T03:38:29.334Z,77
2022-08-07T03:43:26.429Z,78
2022-08-07T03:48:25.909Z,77
2022-08-07T03:53:49.960Z,76
2022-08-07T03:58:35.714Z,76
2022-08-07T04:03:38.796Z,77
2022-08-07T04:08:31.803Z,76
2022-08-07T04:14:09.660Z,75
2022-08-07T04:18:58.831Z,75
2022-08-07T04:23:43.176Z,74
2022-08-07T04:28:38.123Z,73
2022-08-07T04:33:40.114Z,73
2022-08-07T04:38:41.338Z,71
2022-08-07T04:43:53.642Z,71
2022-08-07T05:09:00.341Z,67
2022-08-07T05:14:45.373Z,66
2022-08-07T05:18:55.208Z,65
2022-08-07T05:23:56.960Z,65
2022-08-07T05:34:01.619Z,63
2022-08-07T05:44:08.841Z,61
2022-08-07T05:49:09.009Z,61
2022-08-07T05:54:08.757Z,60
2022-08-07T06:04:10.990Z,59
2022-08-07T06:09:12.875Z,58
2022-08-07T06:14:21.121Z,56
2022-08-07T06:19:17.755Z,55
2022-08-07T06:24:38.827Z,54
2022-08-07T06:29:19.370Z,52
2022-08-07T06:34:21.517Z,51
2022-08-07T06:40:13.796Z,51
2022-08-07T06:44:24.185Z,49
2022-08-07T06:49:25.538Z,50
2022-08-07T06:55:30.489Z,49
2022-08-07T07:00:11.114Z,48
2022-08-07T07:04:33.109Z,47
2022-08-07T07:09:32.835Z,48
2022-08-07T07:14:34.654Z,48
2022-08-07T07:19:56.653Z,47
2022-08-07T07:24:37.912Z,46
2022-08-07T07:29:57.328Z,47
2022-08-07T07:34:40.917Z,47
2022-08-07T07:39:45.622Z,46
2022-08-07T07:44:44.666Z,47
2022-08-07T07:50:32.144Z,47
2022-08-07T07:54:50.934Z,46
2022-08-07T07:59:51.948Z,47
2022-08-07T08:04:51.368Z,47
2022-08-07T08:10:05.191Z,46
2022-08-07T08:14:55.157Z,46
2022-08-07T08:20:16.481Z,44
2022-08-07T08:25:04.600Z,42
2022-08-07T08:30:02.973Z,42
2022-08-07T08:35:02.470Z,41
2022-08-07T08:40:04.343Z,41
2022-08-07T08:45:05.840Z,40
2022-08-07T08:50:07.406Z,38
2022-08-07T08:55:08.778Z,39
2022-08-07T09:00:10.030Z,39
2022-08-07T09:05:14.629Z,38
2022-08-07T09:10:13.817Z,38
2022-08-07T09:16:21.030Z,38
2022-08-07T09:20:35.103Z,38
2022-08-07T09:25:20.255Z,36
2022-08-07T09:30:25.625Z,36
2022-08-07T09:36:01.817Z,36
2022-08-07T09:40:24.745Z,35
2022-08-07T09:47:20.094Z,34
2022-08-07T09:50:30.123Z,36
2022-08-07T09:56:02.512Z,35
2022-08-07T10:00:31.936Z,33
2022-08-07T10:05:59.304Z,34
2022-08-07T10:10:54.066Z,34
2022-08-07T10:15:37.757Z,35
2022-08-07T10:20:37.154Z,35
2022-08-07T10:25:42.610Z,35
2022-08-07T10:30:39.970Z,36
2022-08-07T10:35:55.111Z,37
2022-08-07T10:40:43.626Z,36
2022-08-07T10:45:57.921Z,35
2022-08-07T10:50:50.088Z,36
2022-08-07T10:55:48.260Z,36
2022-08-07T11:00:55.867Z,35
2022-08-07T11:05:52.135Z,36
2022-08-07T11:10:58.070Z,35
2022-08-07T11:15:55.641Z,35
2022-08-07T11:20:56.861Z,35
2022-08-07T11:26:06.138Z,36
2022-08-07T11:31:00.659Z,35
2022-08-07T11:36:02.549Z,36
2022-08-07T11:41:03.514Z,36
2022-08-07T11:46:04.828Z,35
2022-08-07T11:51:09.006Z,36
2022-08-07T11:56:26.207Z,34
2022-08-07T12:01:09.769Z,35
2022-08-07T12:06:36.732Z,35
2022-08-07T12:11:20.915Z,35
2022-08-07T12:16:14.271Z,34
2022-08-07T12:21:15.974Z,34
2022-08-07T12:26:23.639Z,34
2022-08-07T12:31:22.275Z,34
2022-08-07T12:36:33.251Z,35
2022-08-07T12:41:23.260Z,34
2022-08-07T12:46:26.167Z,35
2022-08-07T12:51:33.117Z,35
2022-08-07T12:56:27.369Z,35
2022-08-07T13:01:32.276Z,35
2022-08-07T13:06:30.538Z,35
2022-08-07T13:12:00.847Z,34
2022-08-07T13:16:40.884Z,36
2022-08-07T13:21:50.135Z,35
2022-08-07T13:26:44.613Z,35
2022-08-07T13:31:45.905Z,35
2022-08-07T13:36:47.314Z,34
2022-08-07T13:41:48.876Z,35
2022-08-07T13:46:50.552Z,34
2022-08-07T13:52:04.378Z,35
2022-08-07T13:56:55.738Z,33
2022-08-07T14:02:03.497Z,34
2022-08-07T14:06:57.389Z,35
2022-08-07T14:12:10.371Z,35
2022-08-07T14:17:01.066Z,34
2022-08-07T14:22:11.521Z,34
2022-08-07T14:27:16.362Z,34
2022-08-07T14:32:06.429Z,34
2022-08-07T14:37:07.778Z,34
2022-08-07T14:42:15.294Z,35
2022-08-07T14:47:20.650Z,34
2022-08-07T14:52:12.999Z,36
2022-08-07T15:02:31.500Z,35
2022-08-07T15:07:47.775Z,34
2022-08-07T15:17:30.736Z,34
2022-08-07T15:22:29.295Z,35
2022-08-07T15:27:24.806Z,35
2022-08-07T15:32:39.241Z,35
2022-08-07T15:37:28.318Z,36
2022-08-07T15:42:45.556Z,36
2022-08-07T15:48:00.571Z,36
2022-08-07T15:52:34.085Z,36
2022-08-07T15:57:39.564Z,36
2022-08-07T16:02:36.756Z,37
2022-08-07T16:08:28.773Z,37
2022-08-07T16:12:40.008Z,37
2022-08-07T16:18:01.112Z,37
2022-08-07T16:22:54.696Z,37
2022-08-07T16:27:45.190Z,37
2022-08-07T16:32:53.935Z,36
2022-08-07T16:38:02.870Z,36
2022-08-07T16:42:50.361Z,36
2022-08-07T16:47:56.079Z,37
2022-08-07T16:52:55.477Z,37
2022-08-07T16:58:01.386Z,38
2022-08-07T17:02:57.874Z,38
2022-08-07T17:07:59.439Z,38
2022-08-07T17:13:01.226Z,38
2022-08-07T17:18:02.776Z,38
2022-08-07T17:23:08.689Z,39
2022-08-07T17:28:06.695Z,40
2022-08-07T17:33:39.393Z,40
2022-08-07T17:38:21.248Z,40
2022-08-07T17:43:15.189Z,40
2022-08-07T17:48:12.703Z,40
2022-08-07T17:53:23.701Z,41
2022-08-07T17:58:20.763Z,41
2022-08-07T18:03:18.392Z,42
2022-08-07T18:08:24.250Z,41
2022-08-07T18:13:20.419Z,41
2022-08-07T18:18:33.298Z,41
2022-08-07T18:23:42.847Z,41
2022-08-07T18:28:34.592Z,42
2022-08-07T18:33:26.948Z,42
2022-08-07T18:38:54.622Z,42
2022-08-07T18:43:36.799Z,42
2022-08-07T18:48:38.106Z,43
2022-08-07T18:53:37.125Z,44
2022-08-07T18:58:35.636Z,44
2022-08-07T19:03:38.827Z,44
2022-08-07T19:08:39.556Z,44
2022-08-07T19:13:41.090Z,45
2022-08-07T20:03:56.002Z,47
2022-08-07T20:08:57.884Z,48
2022-08-07T20:13:59.943Z,48
2022-08-07T20:19:01.233Z,48
2022-08-07T20:24:03.129Z,49
2022-08-07T20:29:10.329Z,49
2022-08-07T20:34:05.980Z,50
2022-08-07T20:39:30.850Z,50
2022-08-07T20:44:10.417Z,50
2022-08-07T20:49:55.395Z,50
2022-08-07T20:54:15.231Z,51
2022-08-07T20:59:27.376Z,51
2022-08-07T21:04:20.002Z,52
2022-08-07T21:09:17.229Z,52
2022-08-07T21:14:33.733Z,52
2022-08-07T21:19:20.195Z,52
2022-08-07T21:24:21.939Z,52
2022-08-07T21:29:23.204Z,52
2022-08-07T21:34:26.545Z,53
2022-08-07T21:39:44.877Z,53
2022-08-07T21:44:30.056Z,53
2022-08-07T21:49:30.071Z,54
2022-08-07T21:54:31.900Z,54
2022-08-07T21:59:36.389Z,55
2022-08-07T22:14:38.966Z,56
2022-08-07T22:19:40.263Z,56
2022-08-07T22:24:41.412Z,56
2022-08-07T22:29:47.603Z,56
2022-08-07T22:34:49.560Z,57
2022-08-07T22:39:51.677Z,57
2022-08-07T22:44:57.924Z,58
2022-08-07T22:49:51.701Z,58
2022-08-07T22:54:51.952Z,59
2022-08-07T22:59:53.466Z,60
2022-08-07T23:04:57.682Z,60
2022-08-07T23:10:01.582Z,59
2022-08-07T23:14:58.601Z,60
2022-08-07T23:20:03.090Z,60
2022-08-07T23:25:01.556Z,60
2022-08-07T23:30:36.448Z,60
2022-08-07T23:35:04.409Z,60
2022-08-07T23:40:07.414Z,60
2022-08-07T23:45:14.938Z,60
2022-08-07T23:50:11.705Z,60
2022-08-07T23:55:11.845Z,61
